Time;durP1;ratioP1;P1;durP2;ratioP2;P2;SDS_P1;SDS_P2;PMS_P1;PMS_P2;Temp;Humidity;BMP_temperature;BMP_pressure;BME280_temperature;BME280_humidity;BME280_pressure;Samples;Min_cycle;Max_cycle;Signal;HPM_P1;HPM_P2
2023/07/22 00:03:20;;;;;;;14.95;9.63;;;;;;;;;;10467552;28;20074;-83
2023/07/22 00:08:23;;;;;;;15.18;10.77;;;;;;;;;;10486126;28;20035;-83
2023/07/22 00:13:26;;;;;;;16.65;11.13;;;;;;;;;;10484719;28;20036;-82
2023/07/22 00:18:28;;;;;;;18.65;12.02;;;;;;;;;;10479500;28;20044;-82
2023/07/22 00:23:30;;;;;;;17.30;12.00;;;;;;;;;;10484241;28;20024;-82
2023/07/22 00:28:31;;;;;;;16.90;11.80;;;;;;;;;;10484674;28;20570;-82
2023/07/22 00:33:32;;;;;;;15.95;11.05;;;;;;;;;;10484683;28;20069;-82
2023/07/22 00:38:33;;;;;;;16.45;11.90;;;;;;;;;;10483028;28;20070;-82
2023/07/22 00:43:34;;;;;;;15.20;11.50;;;;;;;;;;10484418;28;20062;-82
2023/07/22 00:48:35;;;;;;;22.75;15.95;;;;;;;;;;10482276;28;20046;-83
2023/07/22 00:53:36;;;;;;;17.92;14.07;;;;;;;;;;10483198;28;20070;-82
2023/07/22 00:58:37;;;;;;;19.10;14.25;;;;;;;;;;10485073;28;20082;-82
2023/07/22 01:03:38;;;;;;;24.05;15.55;;;;;;;;;;10484885;28;20041;-82
2023/07/22 01:08:40;;;;;;;21.98;16.52;;;;;;;;;;10488109;28;20145;-82
2023/07/22 01:13:41;;;;;;;22.63;15.90;;;;;;;;;;10491720;28;20054;-82
2023/07/22 01:18:43;;;;;;;21.85;16.83;;;;;;;;;;10492556;28;20044;-82
2023/07/22 01:23:44;;;;;;;22.25;16.27;;;;;;;;;;10490461;28;20029;-83
2023/07/22 01:28:45;;;;;;;24.13;16.67;;;;;;;;;;10491481;28;20700;-82
2023/07/22 01:33:46;;;;;;;23.70;17.80;;;;;;;;;;10490129;28;20036;-81
2023/07/22 01:38:47;;;;;;;30.63;19.00;;;;;;;;;;10489767;28;20036;-82
2023/07/22 01:43:48;;;;;;;26.80;19.00;;;;;;;;;;10490332;28;20028;-83
2023/07/22 01:48:49;;;;;;;25.00;17.80;;;;;;;;;;10490173;28;20100;-82
2023/07/22 01:53:51;;;;;;;20.67;14.65;;;;;;;;;;10489576;28;20036;-82
2023/07/22 01:58:52;;;;;;;28.23;18.63;;;;;;;;;;10489954;28;20506;-82
2023/07/22 02:03:53;;;;;;;19.95;15.85;;;;;;;;;;10491908;28;20036;-82
2023/07/22 02:08:54;;;;;;;28.48;19.85;;;;;;;;;;10490676;28;20021;-83
2023/07/22 02:13:55;;;;;;;31.52;22.65;;;;;;;;;;10490489;28;20116;-83
2023/07/22 02:18:56;;;;;;;31.67;21.70;;;;;;;;;;10488304;28;20044;-82
2023/07/22 02:23:57;;;;;;;32.60;23.65;;;;;;;;;;10488996;28;20387;-82
2023/07/22 02:28:58;;;;;;;27.95;21.13;;;;;;;;;;10488614;28;20035;-83
2023/07/22 02:34:00;;;;;;;30.67;20.50;;;;;;;;;;10489489;28;20030;-82
2023/07/22 02:39:01;;;;;;;23.75;18.38;;;;;;;;;;10488609;28;20496;-83
2023/07/22 02:44:03;;;;;;;30.63;21.08;;;;;;;;;;10489453;28;20052;-82
2023/07/22 02:49:05;;;;;;;25.35;20.35;;;;;;;;;;10488115;28;20523;-83
2023/07/22 02:54:06;;;;;;;23.58;18.42;;;;;;;;;;10488650;28;20148;-84
2023/07/22 02:59:08;;;;;;;27.42;19.13;;;;;;;;;;10487509;28;20070;-84
2023/07/22 03:04:09;;;;;;;28.88;20.83;;;;;;;;;;10488214;28;20443;-83
2023/07/22 03:09:11;;;;;;;28.95;21.50;;;;;;;;;;10486671;28;20031;-82
2023/07/22 03:14:12;;;;;;;30.20;21.23;;;;;;;;;;10487524;28;20028;-83
2023/07/22 03:19:13;;;;;;;26.98;20.42;;;;;;;;;;10486746;28;20729;-83
2023/07/22 03:24:14;;;;;;;28.00;22.48;;;;;;;;;;10486963;28;20097;-83
2023/07/22 03:29:15;;;;;;;25.42;20.52;;;;;;;;;;10486526;28;20162;-85
2023/07/22 03:34:16;;;;;;;30.85;21.00;;;;;;;;;;10477034;28;20444;-83
2023/07/22 03:39:20;;;;;;;25.40;18.58;;;;;;;;;;10479898;28;20042;-85
2023/07/22 03:44:21;;;;;;;30.27;20.75;;;;;;;;;;10484334;28;20032;-83
2023/07/22 03:49:22;;;;;;;30.38;20.17;;;;;;;;;;10485235;28;20476;-83
2023/07/22 03:54:23;;;;;;;29.20;20.40;;;;;;;;;;10485698;28;20128;-83
2023/07/22 03:59:24;;;;;;;27.42;20.77;;;;;;;;;;10484480;28;20040;-83
2023/07/22 04:04:25;;;;;;;27.50;21.88;;;;;;;;;;10483055;28;20020;-84
2023/07/22 04:09:28;;;;;;;27.45;21.17;;;;;;;;;;10486076;28;20633;-84
2023/07/22 04:14:29;;;;;;;27.77;20.85;;;;;;;;;;10496263;28;20032;-84
2023/07/22 04:19:30;;;;;;;32.30;22.83;;;;;;;;;;10495971;28;20036;-83
2023/07/22 04:24:32;;;;;;;30.92;22.13;;;;;;;;;;10485348;28;20040;-83
2023/07/22 04:29:33;;;;;;;28.75;20.55;;;;;;;;;;10484141;28;20040;-84
2023/07/22 04:34:34;;;;;;;28.15;21.10;;;;;;;;;;10484337;28;20032;-82
2023/07/22 04:39:35;;;;;;;28.35;21.63;;;;;;;;;;10484945;28;20678;-82
2023/07/22 04:44:36;;;;;;;34.28;22.15;;;;;;;;;;10483612;28;20471;-82
2023/07/22 04:49:37;;;;;;;29.80;23.13;;;;;;;;;;10475983;28;20089;-83
2023/07/22 04:54:38;;;;;;;28.20;21.70;;;;;;;;;;10482367;28;20503;-82
2023/07/22 04:59:39;;;;;;;26.95;20.75;;;;;;;;;;10482572;28;20040;-84
2023/07/22 05:04:40;;;;;;;24.90;18.40;;;;;;;;;;10483747;28;20041;-82
2023/07/22 05:09:41;;;;;;;21.17;15.55;;;;;;;;;;10482344;28;20025;-82
2023/07/22 05:14:42;;;;;;;21.10;15.52;;;;;;;;;;10483921;28;20032;-82
2023/07/22 05:19:43;;;;;;;18.13;15.07;;;;;;;;;;10483987;28;20480;-83
2023/07/22 05:24:46;;;;;;;16.02;13.95;;;;;;;;;;10484058;28;20067;-83
2023/07/22 05:29:47;;;;;;;19.05;14.30;;;;;;;;;;10501893;22;20508;-82
2023/07/22 05:34:48;;;;;;;16.42;11.90;;;;;;;;;;10465385;28;20043;-82
2023/07/22 05:39:49;;;;;;;15.77;12.82;;;;;;;;;;10483249;28;20037;-82
2023/07/22 05:44:50;;;;;;;13.25;10.27;;;;;;;;;;10483071;28;20141;-83
2023/07/22 05:49:51;;;;;;;11.40;9.93;;;;;;;;;;10482178;28;20766;-85
2023/07/22 05:54:52;;;;;;;9.60;8.00;;;;;;;;;;10486099;28;20078;-84
2023/07/22 05:59:53;;;;;;;10.70;8.35;;;;;;;;;;10490808;28;20040;-82
2023/07/22 06:04:54;;;;;;;8.20;7.22;;;;;;;;;;10490698;28;20024;-82
2023/07/22 06:09:55;;;;;;;10.93;7.97;;;;;;;;;;10490784;28;20035;-84
2023/07/22 06:14:56;;;;;;;10.48;7.15;;;;;;;;;;10512426;22;20068;-84
2023/07/22 06:19:57;;;;;;;7.05;6.28;;;;;;;;;;10490526;28;20044;-84
2023/07/22 06:24:58;;;;;;;7.72;5.85;;;;;;;;;;10490262;28;20025;-84
2023/07/22 06:29:59;;;;;;;6.60;5.18;;;;;;;;;;10489470;28;20048;-85
2023/07/22 06:35:00;;;;;;;8.38;5.72;;;;;;;;;;10487797;28;20032;-86
2023/07/22 06:40:02;;;;;;;9.30;6.32;;;;;;;;;;10489147;28;20667;-84
2023/07/22 06:45:03;;;;;;;7.82;5.68;;;;;;;;;;10488134;28;20040;-84
2023/07/22 06:50:04;;;;;;;8.00;6.25;;;;;;;;;;10487859;28;20082;-85
2023/07/22 06:55:06;;;;;;;8.77;5.82;;;;;;;;;;10488457;28;20055;-85
2023/07/22 07:00:09;;;;;;;12.40;6.30;;;;;;;;;;10487087;28;20032;-84
2023/07/22 07:05:11;;;;;;;4.15;3.72;;;;;;;;;;10486123;28;20020;-85
2023/07/22 07:10:12;;;;;;;7.72;3.92;;;;;;;;;;10486667;28;20551;-86
2023/07/22 07:15:13;;;;;;;7.10;4.18;;;;;;;;;;10486442;28;20058;-85
2023/07/22 07:20:14;;;;;;;6.47;4.28;;;;;;;;;;10485473;28;20108;-84
2023/07/22 07:25:16;;;;;;;4.45;3.53;;;;;;;;;;10484201;28;20765;-84
2023/07/22 07:30:17;;;;;;;3.30;2.78;;;;;;;;;;10487081;28;20033;-86
2023/07/22 07:35:18;;;;;;;6.25;2.92;;;;;;;;;;10492575;28;20032;-84
2023/07/22 07:40:19;;;;;;;3.50;2.70;;;;;;;;;;10486000;28;20040;-85
2023/07/22 07:45:20;;;;;;;5.65;3.72;;;;;;;;;;10484265;28;20502;-84
2023/07/22 07:50:21;;;;;;;4.03;2.95;;;;;;;;;;10483312;28;20035;-84
2023/07/22 07:55:22;;;;;;;3.47;2.78;;;;;;;;;;10481977;28;20025;-85
2023/07/22 08:00:41;;;;;;;3.55;2.83;;;;;;;;;;10482943;28;20028;-84
2023/07/22 08:05:42;;;;;;;3.90;2.80;;;;;;;;;;10480620;28;20037;-84
2023/07/22 08:10:44;;;;;;;4.93;2.60;;;;;;;;;;10481928;28;20464;-85
2023/07/22 08:15:45;;;;;;;2.88;2.22;;;;;;;;;;10486028;28;20099;-84
2023/07/22 08:20:47;;;;;;;5.60;2.70;;;;;;;;;;10479204;28;20029;-83
2023/07/22 08:25:48;;;;;;;3.13;2.30;;;;;;;;;;10485311;28;20495;-84
2023/07/22 08:30:49;;;;;;;2.95;2.20;;;;;;;;;;10483395;28;20134;-84
2023/07/22 08:35:53;;;;;;;4.03;2.20;;;;;;;;;;10488255;28;20042;-84
2023/07/22 08:40:54;;;;;;;3.88;2.58;;;;;;;;;;10471307;28;20036;-86
2023/07/22 08:45:55;;;;;;;5.47;2.47;;;;;;;;;;10482433;28;20032;-83
2023/07/22 08:51:04;;;;;;;2.30;2.10;;;;;;;;;;10484395;28;20041;-84
2023/07/22 08:56:05;;;;;;;3.70;2.40;;;;;;;;;;10482524;28;20123;-84
2023/07/22 09:01:07;;;;;;;3.25;2.10;;;;;;;;;;10482540;28;20043;-84
2023/07/22 09:06:08;;;;;;;2.13;1.92;;;;;;;;;;10478634;28;20029;-86
2023/07/22 09:11:09;;;;;;;2.47;2.17;;;;;;;;;;10482846;28;20028;-84
2023/07/22 09:16:11;;;;;;;2.47;2.00;;;;;;;;;;10481422;28;20049;-84
2023/07/22 09:21:12;;;;;;;3.38;2.13;;;;;;;;;;10484342;28;20396;-88
2023/07/22 09:26:14;;;;;;;3.15;2.30;;;;;;;;;;10483087;28;20033;-86
2023/07/22 09:31:15;;;;;;;2.28;2.03;;;;;;;;;;10496743;28;20028;-87
2023/07/22 09:36:16;;;;;;;3.50;2.10;;;;;;;;;;10488524;28;20492;-84
2023/07/22 09:41:20;;;;;;;3.00;2.10;;;;;;;;;;10511437;22;20048;-85
2023/07/22 09:46:21;;;;;;;2.08;1.70;;;;;;;;;;10491070;28;20013;-88
2023/07/22 09:51:22;;;;;;;3.58;2.00;;;;;;;;;;10490774;28;20036;-86
2023/07/22 09:56:23;;;;;;;5.35;2.53;;;;;;;;;;10479389;28;20032;-86
2023/07/22 10:01:25;;;;;;;1.98;1.70;;;;;;;;;;10490615;28;20046;-87
2023/07/22 10:06:27;;;;;;;2.25;2.05;;;;;;;;;;10489807;28;20020;-87
2023/07/22 10:11:29;;;;;;;1.95;1.75;;;;;;;;;;10473098;28;20090;-86
2023/07/22 10:16:30;;;;;;;3.45;2.03;;;;;;;;;;10509016;22;20060;-86
2023/07/22 10:21:31;;;;;;;2.60;2.30;;;;;;;;;;10488931;28;20560;-88
2023/07/22 10:26:33;;;;;;;2.38;1.95;;;;;;;;;;10488363;28;20024;-84
2023/07/22 10:31:34;;;;;;;4.13;2.05;;;;;;;;;;10489332;28;20040;-85
2023/07/22 10:36:36;;;;;;;2.17;1.98;;;;;;;;;;10487924;28;20810;-88
2023/07/22 10:41:39;;;;;;;3.13;2.38;;;;;;;;;;10469434;28;20028;-85
2023/07/22 10:46:43;;;;;;;2.58;1.90;;;;;;;;;;10469495;28;20031;-87
2023/07/22 10:51:50;;;;;;;4.18;3.05;;;;;;;;;;10481530;28;20090;-86
2023/07/22 10:56:51;;;;;;;5.45;2.33;;;;;;;;;;10487536;28;20696;-88
2023/07/22 11:01:54;;;;;;;4.47;2.97;;;;;;;;;;10468666;28;20039;-87
2023/07/22 11:06:55;;;;;;;2.97;2.20;;;;;;;;;;10474036;28;20782;-87
2023/07/22 11:12:00;;;;;;;4.20;2.38;;;;;;;;;;10487445;28;20528;-86
2023/07/22 11:17:05;;;;;;;4.38;2.65;;;;;;;;;;10487640;28;20159;-87
2023/07/22 11:22:06;;;;;;;2.40;1.80;;;;;;;;;;10485941;28;20511;-87
2023/07/22 11:27:08;;;;;;;3.20;1.95;;;;;;;;;;10488681;28;20028;-87
2023/07/22 11:32:21;;;;;;;3.80;2.03;;;;;;;;;;10487203;28;20040;-85
2023/07/22 11:37:22;;;;;;;3.17;2.25;;;;;;;;;;10485231;28;20059;-86
2023/07/22 11:42:23;;;;;;;2.92;1.83;;;;;;;;;;10497069;28;20119;-87
2023/07/22 11:47:30;;;;;;;4.78;1.90;;;;;;;;;;10483589;28;20535;-87
2023/07/22 11:52:31;;;;;;;5.30;2.30;;;;;;;;;;10481399;28;20024;-86
2023/07/22 11:57:32;;;;;;;3.60;1.75;;;;;;;;;;10491357;28;20036;-88
2023/07/22 12:02:36;;;;;;;1.98;1.70;;;;;;;;;;10493354;28;20448;-89
2023/07/22 12:07:39;;;;;;;3.15;2.22;;;;;;;;;;10485367;28;20031;-84
2023/07/22 12:12:48;;;;;;;2.70;1.85;;;;;;;;;;10486812;28;20060;-85
2023/07/22 12:17:50;;;;;;;3.38;2.03;;;;;;;;;;10495199;28;20059;-86
2023/07/22 12:22:51;;;;;;;4.85;2.30;;;;;;;;;;10484937;28;20032;-87
2023/07/22 12:27:52;;;;;;;3.63;2.17;;;;;;;;;;10483907;28;20036;-87
2023/07/22 12:32:53;;;;;;;3.78;2.40;;;;;;;;;;10484951;28;20032;-87
2023/07/22 12:37:54;;;;;;;2.92;2.08;;;;;;;;;;10463081;22;20159;-89
2023/07/22 12:42:55;;;;;;;2.97;1.90;;;;;;;;;;10441836;28;20483;-92
2023/07/22 12:47:56;;;;;;;3.80;2.47;;;;;;;;;;10428974;28;20033;-88
2023/07/22 12:53:01;;;;;;;3.72;1.92;;;;;;;;;;10423780;28;20409;-90
2023/07/22 12:58:02;;;;;;;7.60;2.53;;;;;;;;;;10441620;28;20461;-89
2023/07/22 13:03:03;;;;;;;3.65;2.00;;;;;;;;;;10426728;28;20647;-88
2023/07/22 13:08:04;;;;;;;8.70;2.42;;;;;;;;;;10433566;28;20036;-87
2023/07/22 13:13:05;;;;;;;2.20;2.00;;;;;;;;;;10452054;28;20028;-88
2023/07/22 13:18:07;;;;;;;3.83;2.53;;;;;;;;;;10441341;28;20043;-87
2023/07/22 13:23:08;;;;;;;3.75;2.60;;;;;;;;;;10452132;28;20130;-87
2023/07/22 13:28:09;;;;;;;3.08;2.15;;;;;;;;;;10449628;28;20190;-86
2023/07/22 13:33:10;;;;;;;5.15;2.75;;;;;;;;;;10450524;28;20112;-86
2023/07/22 13:38:11;;;;;;;6.05;3.50;;;;;;;;;;10446525;28;20063;-87
2023/07/22 13:43:12;;;;;;;2.65;2.30;;;;;;;;;;10446550;28;20431;-87
2023/07/22 13:48:13;;;;;;;3.30;2.40;;;;;;;;;;10447683;28;20032;-87
2023/07/22 13:53:14;;;;;;;4.47;2.85;;;;;;;;;;10445829;28;20029;-87
2023/07/22 13:58:15;;;;;;;4.43;2.40;;;;;;;;;;10447507;28;20676;-87
2023/07/22 14:03:16;;;;;;;3.78;2.40;;;;;;;;;;10447106;28;20036;-87
2023/07/22 14:08:17;;;;;;;3.72;2.08;;;;;;;;;;10447851;28;20013;-90
2023/07/22 14:13:18;;;;;;;4.30;2.22;;;;;;;;;;10445174;28;20578;-87
2023/07/22 14:18:19;;;;;;;4.20;2.33;;;;;;;;;;10445016;28;20061;-87
2023/07/22 14:23:20;;;;;;;5.50;2.30;;;;;;;;;;10445004;28;20120;-87
2023/07/22 14:28:21;;;;;;;5.40;2.72;;;;;;;;;;10446883;28;20033;-87
2023/07/22 14:33:22;;;;;;;2.03;1.83;;;;;;;;;;10444957;28;20033;-88
2023/07/22 14:38:23;;;;;;;2.90;2.30;;;;;;;;;;10407439;28;1120547;-88
2023/07/22 14:43:24;;;;;;;3.88;2.85;;;;;;;;;;10447199;28;20028;-87
2023/07/22 14:48:25;;;;;;;3.00;2.70;;;;;;;;;;10447070;28;20129;-89
2023/07/22 14:53:27;;;;;;;3.35;2.38;;;;;;;;;;10448456;28;20033;-87
2023/07/22 14:58:28;;;;;;;4.03;2.65;;;;;;;;;;10446069;28;20065;-86
2023/07/22 15:03:29;;;;;;;2.08;1.88;;;;;;;;;;10447650;28;20120;-88
2023/07/22 15:08:30;;;;;;;2.17;2.08;;;;;;;;;;10446668;28;20870;-88
2023/07/22 15:13:31;;;;;;;2.95;2.05;;;;;;;;;;10445709;28;20024;-87
2023/07/22 15:18:33;;;;;;;2.38;2.13;;;;;;;;;;10444983;28;20605;-86
2023/07/22 15:23:34;;;;;;;4.40;2.38;;;;;;;;;;10446528;28;20032;-86
2023/07/22 15:28:35;;;;;;;2.35;2.05;;;;;;;;;;10445435;28;20158;-88
2023/07/22 15:33:36;;;;;;;4.75;2.20;;;;;;;;;;10446334;28;20670;-87
2023/07/22 15:38:37;;;;;;;3.50;2.15;;;;;;;;;;10446536;28;20122;-90
2023/07/22 15:43:38;;;;;;;2.95;2.40;;;;;;;;;;10444427;28;20028;-89
2023/07/22 15:48:39;;;;;;;2.08;1.88;;;;;;;;;;10444380;28;20043;-86
2023/07/22 15:53:40;;;;;;;3.35;1.70;;;;;;;;;;10444038;28;20037;-88
2023/07/22 15:58:41;;;;;;;3.60;2.65;;;;;;;;;;10443876;28;20044;-86
2023/07/22 16:03:42;;;;;;;2.97;2.10;;;;;;;;;;10444089;28;20087;-88
2023/07/22 16:08:43;;;;;;;3.33;2.42;;;;;;;;;;10445243;28;20098;-87
2023/07/22 16:13:44;;;;;;;2.28;2.08;;;;;;;;;;10443772;28;20075;-87
2023/07/22 16:18:45;;;;;;;2.92;2.10;;;;;;;;;;10444700;28;20469;-87
2023/07/22 16:23:46;;;;;;;3.00;2.30;;;;;;;;;;10444524;28;20024;-87
2023/07/22 16:28:47;;;;;;;5.03;2.95;;;;;;;;;;10443292;28;20028;-88
2023/07/22 16:33:49;;;;;;;2.60;2.00;;;;;;;;;;10443896;28;20051;-87
2023/07/22 16:38:49;;;;;;;2.58;2.35;;;;;;;;;;10458525;28;20071;-87
2023/07/22 16:43:50;;;;;;;3.63;2.42;;;;;;;;;;10443008;28;20037;-87
2023/07/22 16:48:51;;;;;;;3.20;2.20;;;;;;;;;;10445063;28;20432;-88
2023/07/22 16:53:53;;;;;;;3.28;2.50;;;;;;;;;;10443442;28;20040;-87
2023/07/22 16:58:55;;;;;;;5.50;3.25;;;;;;;;;;10442128;28;20033;-86
2023/07/22 17:03:56;;;;;;;4.57;2.95;;;;;;;;;;10443765;28;20026;-89
2023/07/22 17:08:57;;;;;;;3.40;2.20;;;;;;;;;;10442383;28;20063;-87
2023/07/22 17:13:58;;;;;;;3.40;2.58;;;;;;;;;;10443189;28;20029;-87
2023/07/22 17:18:59;;;;;;;3.80;2.60;;;;;;;;;;10442044;28;20477;-87
2023/07/22 17:24:00;;;;;;;2.45;2.25;;;;;;;;;;10442241;28;20032;-87
2023/07/22 17:29:01;;;;;;;2.83;2.30;;;;;;;;;;10442699;28;20048;-89
2023/07/22 17:34:02;;;;;;;2.70;2.42;;;;;;;;;;10441890;28;20492;-87
2023/07/22 17:39:03;;;;;;;3.88;2.90;;;;;;;;;;10441210;28;20064;-87
2023/07/22 17:44:04;;;;;;;3.80;2.45;;;;;;;;;;10442863;28;20017;-87
2023/07/22 17:49:05;;;;;;;2.90;2.42;;;;;;;;;;10442835;28;20033;-87
2023/07/22 17:54:06;;;;;;;3.22;2.70;;;;;;;;;;10451173;28;20025;-87
2023/07/22 17:59:07;;;;;;;5.03;3.15;;;;;;;;;;10449279;28;20037;-87
2023/07/22 18:04:08;;;;;;;4.63;3.30;;;;;;;;;;10449196;28;20036;-86
2023/07/22 18:09:09;;;;;;;3.80;2.75;;;;;;;;;;10448482;28;20393;-86
2023/07/22 18:14:10;;;;;;;3.67;2.88;;;;;;;;;;10447977;28;20025;-87
2023/07/22 18:19:11;;;;;;;3.95;3.08;;;;;;;;;;10449512;28;20563;-86
2023/07/22 18:24:12;;;;;;;5.10;2.95;;;;;;;;;;10450231;28;20036;-88
2023/07/22 18:29:13;;;;;;;3.95;2.90;;;;;;;;;;10449248;28;20044;-87
2023/07/22 18:34:15;;;;;;;5.00;3.40;;;;;;;;;;10449591;28;20040;-86
2023/07/22 18:39:17;;;;;;;3.42;3.13;;;;;;;;;;10447338;28;20063;-87
2023/07/22 18:44:18;;;;;;;3.95;3.00;;;;;;;;;;10447488;28;20120;-86
2023/07/22 18:49:19;;;;;;;4.82;3.25;;;;;;;;;;10447929;28;20020;-86
2023/07/22 18:54:20;;;;;;;6.90;3.42;;;;;;;;;;10447118;28;20025;-86
2023/07/22 18:59:21;;;;;;;5.88;3.88;;;;;;;;;;10446859;28;20098;-89
2023/07/22 19:04:22;;;;;;;4.78;3.45;;;;;;;;;;10446552;28;20370;-87
2023/07/22 19:09:23;;;;;;;4.70;3.58;;;;;;;;;;10448325;28;20025;-87
2023/07/22 19:14:24;;;;;;;5.53;3.50;;;;;;;;;;10447087;28;20033;-88
2023/07/22 19:19:25;;;;;;;5.50;3.67;;;;;;;;;;10447489;28;20044;-86
2023/07/22 19:24:26;;;;;;;6.38;4.18;;;;;;;;;;10446547;28;20050;-86
2023/07/22 19:29:27;;;;;;;6.38;4.13;;;;;;;;;;10447080;28;20035;-86
2023/07/22 19:34:28;;;;;;;5.68;4.07;;;;;;;;;;10446540;28;20095;-86
2023/07/22 19:39:29;;;;;;;6.90;4.78;;;;;;;;;;10446257;28;20443;-86
2023/07/22 19:44:30;;;;;;;4.78;4.07;;;;;;;;;;10445000;28;20029;-86
2023/07/22 19:49:31;;;;;;;5.15;3.92;;;;;;;;;;10445666;28;20029;-86
2023/07/22 19:54:32;;;;;;;4.38;3.75;;;;;;;;;;10445827;28;20021;-87
2023/07/22 19:59:33;;;;;;;4.07;3.67;;;;;;;;;;10446134;28;20389;-85
2023/07/22 20:04:34;;;;;;;5.18;3.50;;;;;;;;;;10445347;28;20024;-87
2023/07/22 20:09:35;;;;;;;5.88;4.00;;;;;;;;;;10445075;28;20059;-87
2023/07/22 20:14:36;;;;;;;7.88;4.00;;;;;;;;;;10444731;28;20047;-88
2023/07/22 20:19:37;;;;;;;4.28;3.65;;;;;;;;;;10445008;28;20033;-86
2023/07/22 20:24:38;;;;;;;6.18;3.97;;;;;;;;;;10444671;28;20048;-87
2023/07/22 20:29:39;;;;;;;5.82;4.25;;;;;;;;;;10443165;28;20063;-87
2023/07/22 20:34:40;;;;;;;5.20;4.10;;;;;;;;;;10444385;28;20107;-86
2023/07/22 20:39:41;;;;;;;4.93;3.50;;;;;;;;;;10444941;28;20037;-86
2023/07/22 20:44:42;;;;;;;6.60;3.60;;;;;;;;;;10443232;28;20029;-86
2023/07/22 20:49:43;;;;;;;6.00;4.00;;;;;;;;;;10444783;28;20056;-89
2023/07/22 20:54:48;;;;;;;9.57;4.80;;;;;;;;;;10444549;28;20476;-86
2023/07/22 20:59:52;;;;;;;6.53;4.30;;;;;;;;;;10443412;28;20037;-88
2023/07/22 21:04:54;;;;;;;5.80;4.30;;;;;;;;;;10444486;28;20044;-86
2023/07/22 21:09:55;;;;;;;6.03;4.32;;;;;;;;;;10442504;28;20481;-88
2023/07/22 21:14:56;;;;;;;4.95;3.88;;;;;;;;;;10443071;28;20034;-85
2023/07/22 21:19:57;;;;;;;6.80;5.13;;;;;;;;;;10443229;28;20037;-86
2023/07/22 21:24:58;;;;;;;9.52;4.70;;;;;;;;;;10444275;28;20503;-86
2023/07/22 21:29:59;;;;;;;7.68;4.32;;;;;;;;;;10451179;28;20025;-89
2023/07/22 21:35:00;;;;;;;7.50;5.70;;;;;;;;;;10450105;28;20057;-87
2023/07/22 21:40:01;;;;;;;7.72;5.68;;;;;;;;;;10447548;28;20706;-82
2023/07/22 21:45:04;;;;;;;11.02;7.43;;;;;;;;;;10464702;28;20060;-82
2023/07/22 21:50:06;;;;;;;21.88;12.27;;;;;;;;;;10447992;28;20467;-82
2023/07/22 21:55:07;;;;;;;37.78;19.13;;;;;;;;;;10450007;28;20466;-82
2023/07/22 22:00:12;;;;;;;25.02;14.27;;;;;;;;;;10448316;28;20162;-82
2023/07/22 22:05:13;;;;;;;16.08;9.98;;;;;;;;;;10448087;28;20508;-83
2023/07/22 22:10:14;;;;;;;12.50;8.05;;;;;;;;;;10449388;28;20090;-82
2023/07/22 22:15:15;;;;;;;11.80;8.02;;;;;;;;;;10449445;28;20017;-83
2023/07/22 22:20:16;;;;;;;13.23;7.88;;;;;;;;;;10448244;28;20510;-82
2023/07/22 22:25:17;;;;;;;13.57;8.15;;;;;;;;;;10447334;28;20037;-81
2023/07/22 22:30:18;;;;;;;10.38;8.30;;;;;;;;;;10446650;28;20037;-81
2023/07/22 22:35:19;;;;;;;13.85;9.48;;;;;;;;;;10445987;28;20488;-81
2023/07/22 22:40:20;;;;;;;12.85;8.82;;;;;;;;;;10446566;28;20099;-81
2023/07/22 22:45:22;;;;;;;14.73;9.10;;;;;;;;;;10447851;28;20082;-82
2023/07/22 22:50:23;;;;;;;17.48;10.88;;;;;;;;;;10447165;28;20033;-82
2023/07/22 22:55:24;;;;;;;19.10;10.57;;;;;;;;;;10446342;28;20542;-81
2023/07/22 23:00:25;;;;;;;18.42;11.43;;;;;;;;;;10447190;28;20086;-81
2023/07/22 23:05:27;;;;;;;15.88;10.18;;;;;;;;;;10567068;22;20507;-82
2023/07/22 23:10:28;;;;;;;11.25;7.85;;;;;;;;;;10555937;28;20028;-82
2023/07/22 23:15:30;;;;;;;15.50;10.00;;;;;;;;;;10568157;28;20020;-81
2023/07/22 23:20:31;;;;;;;17.50;11.10;;;;;;;;;;10545307;28;20035;-81
2023/07/22 23:25:32;;;;;;;13.65;9.10;;;;;;;;;;10567394;28;20417;-81
2023/07/22 23:30:33;;;;;;;11.63;8.18;;;;;;;;;;10565099;28;20023;-82
2023/07/22 23:35:34;;;;;;;17.63;10.18;;;;;;;;;;10566127;28;20019;-81
2023/07/22 23:40:35;;;;;;;18.92;11.00;;;;;;;;;;10543488;28;20027;-81
2023/07/22 23:45:36;;;;;;;18.60;12.70;;;;;;;;;;10564637;28;20042;-81
2023/07/22 23:50:38;;;;;;;23.52;15.73;;;;;;;;;;10545391;28;20125;-83
2023/07/22 23:55:39;;;;;;;25.52;17.45;;;;;;;;;;10557778;28;20031;-81
